KCTY/CTY METAR and TAF weather

Enter ICAO airport designator
Station Type Date Time Source
KCTY METAR 2018/01/16 08:55 UTC NOAA

KCTY 160855Z AUTO 36003KT 10SM CLR M01/M01 A3045 RMK AO2 T10061010


Station Type Date Time Source
KCTY Decoded METAR 2018/01/16 08:55 UTC NOAA

CROSS CITY AIRPORT, FL, United States (KCTY) 29-38N 083-06W 12M
Jan 16, 2018 - 03:55 AM EST / 2018.01.16 0855 UTC
Wind: from the N (360 degrees) at 3 MPH (3 KT):0
Visibility: 10 mile(s):0
Sky conditions: clear
Temperature: 30.9 F (-0.6 C)
Dew Point: 30.2 F (-1.0 C)
Relative Humidity: 97%
Pressure (altimeter): 30.45 in. Hg (1031 hPa)
ob: KCTY 160855Z AUTO 36003KT 10SM CLR M01/M01 A3045 RMK AO2 T10061010
cycle: 9

Station Type Date Time Source
KCTY TAF UTC NOAA

Error!


Example: see airport list